createdAt,value
2022-11-02T00:02:23.783Z,14.83
2022-11-02T00:04:53.389Z,14.86
2022-11-02T00:07:21.330Z,14.62
2022-11-02T00:09:52.772Z,14.64
2022-11-02T00:16:33.436Z,14.65
2022-11-02T00:19:01.616Z,14.53
2022-11-02T00:21:29.767Z,14.68
2022-11-02T00:23:58.923Z,14.97
2022-11-02T00:26:27.411Z,14.72
2022-11-02T00:28:55.510Z,14.80
2022-11-02T00:31:23.243Z,14.81
2022-11-02T00:33:51.915Z,14.93
2022-11-02T00:36:21.061Z,14.92
2022-11-02T00:38:49.330Z,15.00
2022-11-02T00:41:20.089Z,14.81
2022-11-02T00:43:54.633Z,15.03
2022-11-02T00:46:22.624Z,15.00
2022-11-02T00:48:56.188Z,14.92
2022-11-02T00:51:24.654Z,14.60
2022-11-02T00:53:52.816Z,14.66
2022-11-02T00:56:20.344Z,14.60
2022-11-02T00:58:50.290Z,14.59
2022-11-02T01:01:17.822Z,14.41
2022-11-02T01:03:45.634Z,14.55
2022-11-02T01:06:15.499Z,14.55
2022-11-02T01:08:43.019Z,14.54
2022-11-02T01:11:13.845Z,14.39
2022-11-02T01:13:42.272Z,14.42
2022-11-02T01:16:10.899Z,14.38
2022-11-02T01:18:43.042Z,14.34
2022-11-02T01:21:13.104Z,14.15
2022-11-02T01:23:40.554Z,14.09
2022-11-02T01:26:09.335Z,14.01
2022-11-02T01:28:37.774Z,14.21
2022-11-02T01:31:07.453Z,13.99
2022-11-02T01:33:35.538Z,13.92
2022-11-02T01:36:07.426Z,13.98
2022-11-02T01:38:34.955Z,14.02
2022-11-02T01:41:02.681Z,14.01
2022-11-02T01:43:36.219Z,14.26
2022-11-02T01:46:12.763Z,13.95
2022-11-02T01:48:44.836Z,13.92
2022-11-02T01:51:35.559Z,13.78
2022-11-02T01:54:08.714Z,13.64
2022-11-02T01:56:38.530Z,13.81
2022-11-02T01:59:10.403Z,13.91
2022-11-02T02:01:38.154Z,13.94
2022-11-02T02:04:06.045Z,13.89
2022-11-02T02:06:36.280Z,13.82
2022-11-02T02:09:06.045Z,13.69
2022-11-02T02:11:35.881Z,13.75
2022-11-02T02:14:12.227Z,13.82
2022-11-02T02:16:45.098Z,14.06
2022-11-02T02:19:32.081Z,13.96
2022-11-02T02:22:07.284Z,13.90
2022-11-02T02:24:58.384Z,13.74
2022-11-02T02:27:47.318Z,13.78
2022-11-02T02:30:16.538Z,13.67
2022-11-02T02:32:54.934Z,13.93
2022-11-02T02:35:41.563Z,13.96
2022-11-02T02:38:18.370Z,14.00
2022-11-02T02:40:52.953Z,13.98
2022-11-02T02:43:26.503Z,13.97
2022-11-02T02:45:58.639Z,13.96
2022-11-02T02:48:26.950Z,13.96
2022-11-02T02:51:11.303Z,14.13
2022-11-02T02:53:42.944Z,14.11
2022-11-02T02:56:11.851Z,13.95
2022-11-02T02:58:51.891Z,14.00
2022-11-02T03:01:19.969Z,13.99
2022-11-02T03:03:48.383Z,14.01
2022-11-02T03:06:30.304Z,14.02
2022-11-02T03:09:04.987Z,14.09
2022-11-02T03:11:34.754Z,14.04
2022-11-02T03:14:17.645Z,14.12
2022-11-02T03:17:19.474Z,14.16
2022-11-02T03:20:16.958Z,14.28
2022-11-02T03:23:15.153Z,14.39
2022-11-02T03:25:50.572Z,13.88
2022-11-02T03:28:39.073Z,13.99
2022-11-02T03:31:10.032Z,14.00
2022-11-02T03:34:00.920Z,14.00
2022-11-02T03:37:01.513Z,13.95
2022-11-02T03:39:38.348Z,14.17
2022-11-02T03:42:07.301Z,14.01
2022-11-02T03:44:38.949Z,13.98
2022-11-02T03:47:10.263Z,13.91
2022-11-02T03:49:40.697Z,14.02
2022-11-02T03:52:15.784Z,14.04
2022-11-02T03:54:43.196Z,13.92
2022-11-02T03:57:22.358Z,13.94
2022-11-02T04:03:58.673Z,14.06
2022-11-02T04:06:26.910Z,14.12
2022-11-02T04:08:55.369Z,13.95
2022-11-02T04:11:43.904Z,14.08
2022-11-02T04:14:30.873Z,14.04
2022-11-02T04:17:19.380Z,14.15
2022-11-02T04:19:49.851Z,14.18
2022-11-02T04:22:37.801Z,14.10
2022-11-02T04:25:20.284Z,14.13
2022-11-02T04:27:52.921Z,14.26
2022-11-02T04:30:23.152Z,14.17
2022-11-02T04:33:10.411Z,14.40
2022-11-02T04:35:39.550Z,14.28
2022-11-02T04:38:27.209Z,14.36
2022-11-02T04:41:16.555Z,14.43
2022-11-02T04:43:45.211Z,14.30
2022-11-02T04:46:15.183Z,14.31
2022-11-02T04:48:43.542Z,14.32
2022-11-02T04:51:11.764Z,14.38
2022-11-02T04:53:46.826Z,14.49
2022-11-02T04:56:15.051Z,14.34
2022-11-02T04:58:45.366Z,14.67
2022-11-02T05:01:25.429Z,14.64
2022-11-02T05:03:55.211Z,14.43
2022-11-02T05:06:25.422Z,14.66
2022-11-02T05:08:54.417Z,14.50
2022-11-02T05:11:22.596Z,14.60
2022-11-02T05:13:50.685Z,14.63
2022-11-02T05:16:20.474Z,14.59
2022-11-02T05:18:50.254Z,14.56
2022-11-02T05:21:19.149Z,14.35
2022-11-02T05:23:48.536Z,14.71
2022-11-02T05:26:18.208Z,14.85
2022-11-02T05:28:48.411Z,14.72
2022-11-02T05:31:15.990Z,14.58
2022-11-02T05:33:47.760Z,14.69
2022-11-02T05:36:16.504Z,14.82
2022-11-02T05:38:44.580Z,14.79
2022-11-02T05:45:40.429Z,14.90
2022-11-02T05:48:08.279Z,14.97
2022-11-02T05:50:35.931Z,15.00
2022-11-02T05:53:04.469Z,14.90
2022-11-02T05:55:40.437Z,14.91
2022-11-02T05:58:10.732Z,15.10
2022-11-02T06:00:42.194Z,15.18
2022-11-02T06:05:45.077Z,15.18
2022-11-02T06:08:14.503Z,15.31
2022-11-02T06:10:47.247Z,14.96
2022-11-02T06:13:20.252Z,14.77
2022-11-02T06:15:48.667Z,14.72
2022-11-02T06:18:27.727Z,14.54
2022-11-02T06:20:59.189Z,14.76
2022-11-02T06:23:29.344Z,14.84
2022-11-02T06:26:01.677Z,14.73
2022-11-02T06:28:33.573Z,14.94
2022-11-02T06:31:02.371Z,14.91
2022-11-02T06:33:37.457Z,15.07
2022-11-02T06:36:07.868Z,15.03
2022-11-02T06:38:38.763Z,15.05
2022-11-02T06:41:07.441Z,15.06
2022-11-02T06:43:38.446Z,15.12
2022-11-02T06:46:08.091Z,15.08
2022-11-02T06:48:38.357Z,15.15
2022-11-02T06:51:07.869Z,15.21
2022-11-02T06:54:13.819Z,15.06
2022-11-02T06:56:53.965Z,15.34
2022-11-02T06:59:38.514Z,15.47
2022-11-02T07:02:22.207Z,15.35
2022-11-02T07:05:07.230Z,15.39
2022-11-02T07:07:49.578Z,15.34
2022-11-02T07:10:43.456Z,15.48
2022-11-02T07:13:15.350Z,15.75
2022-11-02T07:15:57.843Z,15.70
2022-11-02T07:18:27.247Z,15.99
2022-11-02T07:20:55.691Z,15.78
2022-11-02T07:23:24.340Z,15.62
2022-11-02T07:25:53.080Z,15.68
2022-11-02T07:28:22.093Z,15.71
2022-11-02T07:30:51.540Z,15.80
2022-11-02T07:33:27.271Z,15.84
2022-11-02T07:36:07.129Z,16.10
2022-11-02T07:38:39.555Z,16.06
2022-11-02T07:41:08.472Z,16.10
2022-11-02T07:43:41.386Z,16.20
2022-11-02T07:48:48.580Z,16.67
2022-11-02T07:51:19.558Z,16.72
2022-11-02T07:53:51.725Z,16.55
2022-11-02T07:56:20.059Z,16.73
2022-11-02T07:58:48.263Z,16.82
2022-11-02T08:01:17.366Z,16.54
2022-11-02T08:03:46.564Z,16.46
2022-11-02T08:06:14.486Z,16.29
2022-11-02T08:08:42.864Z,16.00
2022-11-02T08:11:11.125Z,16.30
2022-11-02T08:13:39.440Z,16.52
2022-11-02T08:16:08.246Z,16.64
2022-11-02T08:18:36.323Z,16.20
2022-11-02T08:21:06.236Z,16.44
2022-11-02T08:23:36.838Z,16.37
2022-11-02T08:26:08.250Z,16.59
2022-11-02T08:28:43.561Z,16.55
2022-11-02T08:31:17.922Z,16.67
2022-11-02T08:33:46.543Z,16.67
2022-11-02T08:36:14.647Z,16.53
2022-11-02T08:38:42.455Z,17.03
2022-11-02T08:41:10.664Z,16.90
2022-11-02T08:43:41.630Z,17.02
2022-11-02T08:46:15.339Z,17.23
2022-11-02T08:48:53.878Z,17.02
2022-11-02T08:51:21.933Z,16.99
2022-11-02T08:53:51.802Z,17.01
2022-11-02T08:56:21.904Z,16.87
2022-11-02T08:58:52.537Z,16.94
2022-11-02T09:01:20.717Z,16.93
2022-11-02T09:03:50.302Z,17.12
2022-11-02T09:06:19.836Z,17.06
2022-11-02T09:08:51.723Z,17.24
2022-11-02T09:11:22.789Z,17.41
2022-11-02T09:13:59.797Z,17.40
2022-11-02T09:16:31.555Z,17.36
2022-11-02T09:19:01.169Z,17.46
2022-11-02T09:21:30.203Z,17.76
2022-11-02T09:23:59.407Z,17.75
2022-11-02T09:26:29.013Z,17.64
2022-11-02T09:29:00.476Z,17.85
2022-11-02T09:31:30.228Z,18.24
2022-11-02T09:34:00.045Z,18.10
2022-11-02T09:36:30.379Z,18.11
2022-11-02T09:39:18.925Z,18.00
2022-11-02T09:41:51.759Z,17.83
2022-11-02T09:44:29.020Z,18.27
2022-11-02T09:47:39.742Z,18.16
2022-11-02T09:49:47.024Z,18.25
2022-11-02T09:52:26.329Z,18.16
2022-11-02T09:54:56.550Z,18.05
2022-11-02T09:57:32.282Z,18.23
2022-11-02T10:00:01.927Z,18.17
2022-11-02T10:02:59.125Z,18.49
2022-11-02T10:05:41.776Z,18.42
2022-11-02T10:08:30.560Z,18.38
2022-11-02T10:11:27.380Z,18.33
2022-11-02T10:14:11.220Z,18.33
2022-11-02T10:17:12.861Z,18.54
2022-11-02T10:19:42.337Z,18.44
2022-11-02T10:22:13.521Z,18.73
2022-11-02T10:24:47.230Z,18.64
2022-11-02T10:27:24.297Z,18.76
2022-11-02T10:30:00.072Z,18.77
2022-11-02T10:32:28.388Z,18.76
2022-11-02T10:34:59.304Z,18.87
2022-11-02T10:37:45.653Z,18.86
2022-11-02T10:40:41.377Z,19.26
2022-11-02T10:43:09.713Z,19.56
2022-11-02T10:45:49.977Z,19.53
2022-11-02T10:48:40.929Z,19.72
2022-11-02T10:51:13.549Z,20.08
2022-11-02T10:53:47.806Z,20.39
2022-11-02T10:56:19.344Z,20.52
2022-11-02T10:59:02.299Z,20.15
2022-11-02T11:01:32.772Z,20.55
2022-11-02T11:04:07.297Z,20.79
2022-11-02T11:06:49.442Z,20.79
2022-11-02T11:09:21.317Z,21.27
2022-11-02T11:12:07.273Z,21.40
2022-11-02T11:20:32.043Z,21.02
2022-11-02T11:23:21.275Z,21.01
2022-11-02T11:26:28.567Z,21.29
2022-11-02T11:28:57.952Z,21.42
2022-11-02T11:31:26.049Z,21.29
2022-11-02T11:34:00.352Z,21.10
2022-11-02T11:36:34.306Z,21.15
2022-11-02T11:39:05.995Z,21.46
2022-11-02T11:41:35.159Z,21.45
2022-11-02T11:44:04.367Z,21.43
2022-11-02T11:46:46.531Z,20.95
2022-11-02T11:49:36.003Z,20.85
2022-11-02T11:52:19.384Z,21.11
2022-11-02T11:54:57.543Z,21.18
2022-11-02T11:57:30.331Z,21.18
2022-11-02T12:00:05.189Z,21.38
2022-11-02T12:02:39.537Z,21.20
2022-11-02T12:05:16.545Z,20.96
2022-11-02T12:08:02.421Z,20.92
2022-11-02T12:10:30.790Z,21.22
2022-11-02T12:13:28.933Z,21.64
2022-11-02T12:16:20.586Z,21.51
2022-11-02T12:19:19.124Z,21.20
2022-11-02T12:22:07.454Z,21.33
2022-11-02T12:24:51.330Z,21.44
2022-11-02T12:27:31.145Z,21.57
2022-11-02T12:30:04.256Z,21.76
2022-11-02T12:32:35.058Z,21.40
2022-11-02T12:35:30.142Z,21.52
2022-11-02T12:38:23.417Z,21.35
2022-11-02T12:41:14.706Z,21.63
2022-11-02T12:43:44.723Z,21.61
2022-11-02T12:46:48.747Z,21.47
2022-11-02T12:49:38.346Z,21.61
2022-11-02T12:52:38.025Z,21.74
2022-11-02T12:55:17.660Z,21.92
2022-11-02T12:57:46.969Z,21.62
2022-11-02T13:00:22.344Z,21.62
2022-11-02T13:03:14.144Z,21.73
2022-11-02T13:05:51.567Z,21.85
2022-11-02T13:08:44.288Z,21.81
2022-11-02T13:11:23.119Z,22.10
2022-11-02T13:13:58.172Z,22.28
2022-11-02T13:16:44.737Z,22.28
2022-11-02T13:19:20.504Z,22.65
2022-11-02T13:21:55.126Z,22.46
2022-11-02T13:24:30.730Z,22.78
2022-11-02T13:27:22.064Z,22.92
2022-11-02T13:30:03.389Z,22.93
2022-11-02T13:32:43.769Z,23.03
2022-11-02T13:35:17.593Z,22.96
2022-11-02T13:37:50.159Z,22.66
2022-11-02T13:43:45.664Z,22.54
2022-11-02T13:46:44.612Z,22.68
2022-11-02T13:49:27.675Z,22.54
2022-11-02T13:52:02.788Z,22.58
2022-11-02T13:54:35.748Z,22.38
2022-11-02T13:57:07.682Z,22.27
2022-11-02T13:59:50.687Z,21.94
2022-11-02T14:02:30.640Z,21.85
2022-11-02T14:04:59.164Z,21.79
2022-11-02T14:07:36.052Z,21.75
2022-11-02T14:10:18.174Z,21.68
2022-11-02T14:12:53.497Z,21.51
2022-11-02T14:15:32.735Z,21.48
2022-11-02T14:18:20.422Z,21.42
2022-11-02T14:20:53.819Z,21.16
2022-11-02T14:23:26.064Z,21.14
2022-11-02T14:25:56.617Z,21.23
2022-11-02T14:28:44.680Z,21.07
2022-11-02T14:31:23.390Z,20.97
2022-11-02T14:34:26.258Z,20.98
2022-11-02T14:37:05.428Z,20.92
2022-11-02T14:39:46.628Z,20.80
2022-11-02T14:43:06.892Z,20.60
2022-11-02T14:45:48.746Z,20.60
2022-11-02T14:48:16.929Z,20.57
2022-11-02T14:51:05.253Z,20.28
2022-11-02T14:53:36.521Z,20.34
2022-11-02T14:56:05.917Z,20.16
2022-11-02T15:01:19.131Z,20.20
2022-11-02T15:03:48.522Z,20.11
2022-11-02T15:06:37.596Z,20.08
2022-11-02T15:09:11.622Z,20.11
2022-11-02T15:11:47.371Z,19.97
2022-11-02T15:14:43.214Z,19.88
2022-11-02T15:17:19.390Z,19.92
2022-11-02T15:19:52.013Z,19.96
2022-11-02T15:22:41.965Z,19.99
2022-11-02T15:25:20.833Z,19.87
2022-11-02T15:28:02.365Z,19.85
2022-11-02T15:30:32.512Z,19.81
2022-11-02T15:33:05.671Z,19.72
2022-11-02T15:35:37.585Z,19.63
2022-11-02T15:38:30.406Z,19.62
2022-11-02T15:41:24.911Z,19.51
2022-11-02T15:44:23.294Z,19.44
2022-11-02T15:47:01.420Z,19.37
2022-11-02T15:49:49.490Z,19.33
2022-11-02T15:52:28.348Z,19.37
2022-11-02T15:55:36.354Z,19.37
2022-11-02T15:58:35.449Z,19.27
2022-11-02T16:01:23.289Z,19.07
2022-11-02T16:03:58.910Z,18.99
2022-11-02T16:06:54.909Z,18.85
2022-11-02T16:09:35.329Z,18.91
2022-11-02T16:12:25.476Z,18.76
2022-11-02T16:15:12.085Z,18.68
2022-11-02T16:17:43.597Z,18.63
2022-11-02T16:20:19.775Z,18.64
2022-11-02T16:22:55.761Z,18.63
2022-11-02T16:25:39.913Z,18.51
2022-11-02T16:28:24.335Z,18.48
2022-11-02T16:31:10.269Z,18.41
2022-11-02T16:33:49.122Z,18.20
2022-11-02T16:36:20.335Z,18.11
2022-11-02T16:39:01.860Z,18.16
2022-11-02T16:41:38.346Z,17.99
2022-11-02T16:44:29.932Z,17.87
2022-11-02T16:47:09.354Z,17.73
2022-11-02T16:49:51.644Z,17.55
2022-11-02T16:52:34.514Z,17.63
2022-11-02T16:55:38.419Z,17.49
2022-11-02T16:58:21.424Z,17.57
2022-11-02T17:01:02.130Z,17.37
2022-11-02T17:03:37.783Z,17.00
2022-11-02T17:06:10.336Z,16.99
2022-11-02T17:08:39.858Z,16.98
2022-11-02T17:11:17.491Z,16.93
2022-11-02T17:14:03.438Z,16.76
2022-11-02T17:16:34.360Z,16.60
2022-11-02T17:19:06.147Z,16.80
2022-11-02T17:21:51.368Z,16.58
2022-11-02T17:24:33.077Z,16.31
2022-11-02T17:27:26.358Z,16.15
2022-11-02T17:30:00.222Z,16.33
2022-11-02T17:35:15.656Z,16.17
2022-11-02T17:37:51.368Z,16.29
2022-11-02T17:40:26.634Z,16.15
2022-11-02T17:43:04.307Z,16.20
2022-11-02T17:45:39.686Z,16.06
2022-11-02T17:48:11.308Z,15.86
2022-11-02T17:50:44.067Z,15.73
2022-11-02T17:53:15.258Z,15.74
2022-11-02T17:55:54.395Z,15.79
2022-11-02T18:01:05.720Z,15.75
2022-11-02T18:03:37.000Z,15.64
2022-11-02T18:06:18.872Z,15.68
2022-11-02T18:09:11.815Z,15.64
2022-11-02T18:11:46.529Z,15.80
2022-11-02T18:14:17.891Z,15.62
2022-11-02T18:16:52.969Z,15.68
2022-11-02T18:19:42.536Z,15.69
2022-11-02T18:22:12.542Z,15.83
2022-11-02T18:24:47.261Z,15.98
2022-11-02T18:27:22.579Z,16.00
2022-11-02T18:30:07.370Z,16.09
2022-11-02T18:32:43.219Z,16.13
2022-11-02T18:35:18.750Z,16.22
2022-11-02T18:37:49.621Z,16.22
2022-11-02T18:40:35.291Z,16.09
2022-11-02T18:43:06.811Z,16.10
2022-11-02T18:45:48.731Z,16.04
2022-11-02T18:48:17.330Z,16.07
2022-11-02T18:51:00.302Z,15.91
2022-11-02T18:53:30.466Z,15.83
2022-11-02T18:56:05.342Z,15.84
2022-11-02T18:58:41.554Z,15.86
2022-11-02T19:01:16.064Z,15.68
2022-11-02T19:04:10.852Z,15.66
2022-11-02T19:07:06.357Z,15.78
2022-11-02T19:12:28.819Z,15.53
2022-11-02T19:15:04.292Z,15.65
2022-11-02T19:20:20.562Z,15.39
2022-11-02T19:22:56.397Z,15.49
2022-11-02T19:28:09.850Z,15.54
2022-11-02T19:30:46.853Z,15.51
2022-11-02T19:33:16.509Z,15.41
2022-11-02T19:35:56.586Z,15.42
2022-11-02T19:38:40.423Z,15.36
2022-11-02T19:41:15.619Z,15.50
2022-11-02T19:43:53.136Z,15.36
2022-11-02T19:46:27.237Z,15.34
2022-11-02T19:52:01.606Z,15.59
2022-11-02T19:54:33.431Z,15.54
2022-11-02T19:57:08.573Z,15.58
2022-11-02T19:59:42.279Z,15.54
2022-11-02T20:04:54.432Z,15.44
2022-11-02T20:12:47.855Z,15.28
2022-11-02T20:15:23.030Z,15.31
2022-11-02T20:18:18.302Z,15.44
2022-11-02T20:20:55.507Z,15.37
2022-11-02T20:23:27.555Z,15.30
2022-11-02T20:26:17.724Z,15.35
2022-11-02T20:28:56.106Z,15.26
2022-11-02T20:31:28.637Z,14.90
2022-11-02T20:33:57.553Z,14.83
2022-11-02T20:36:30.314Z,14.86
2022-11-02T20:39:05.088Z,14.83
2022-11-02T20:41:33.655Z,14.92
2022-11-02T20:44:09.851Z,14.91
2022-11-02T20:46:52.747Z,14.88
2022-11-02T20:49:49.404Z,14.84
2022-11-02T20:52:23.336Z,14.56
2022-11-02T20:54:58.302Z,14.58
2022-11-02T20:57:32.413Z,14.70
2022-11-02T21:00:02.390Z,14.52
2022-11-02T21:02:33.397Z,14.55
2022-11-02T21:05:02.012Z,14.62
2022-11-02T21:07:32.673Z,14.58
2022-11-02T21:10:09.381Z,14.52
2022-11-02T21:13:02.720Z,14.36
2022-11-02T21:15:32.546Z,14.32
2022-11-02T21:18:00.646Z,14.30
2022-11-02T21:20:34.237Z,14.54
2022-11-02T21:23:10.648Z,14.57
2022-11-02T21:25:40.842Z,14.48
2022-11-02T21:28:10.831Z,14.75
2022-11-02T21:30:38.689Z,14.96
2022-11-02T21:33:06.599Z,14.85
2022-11-02T21:35:36.113Z,14.78
2022-11-02T21:40:40.031Z,14.80
2022-11-02T21:43:09.553Z,14.83
2022-11-02T21:45:38.588Z,14.97
2022-11-02T21:48:09.818Z,15.08
2022-11-02T21:50:39.543Z,15.04
2022-11-02T21:53:08.649Z,15.09
2022-11-02T21:55:38.583Z,15.23
2022-11-02T21:58:14.705Z,15.24
2022-11-02T22:01:02.498Z,15.33
2022-11-02T22:03:33.850Z,15.52
2022-11-02T22:06:05.633Z,15.59
2022-11-02T22:08:40.325Z,15.55
2022-11-02T22:11:10.430Z,15.84
2022-11-02T22:13:48.297Z,15.82
2022-11-02T22:16:38.146Z,15.67
2022-11-02T22:19:09.008Z,15.79
2022-11-02T22:21:40.091Z,15.88
2022-11-02T22:24:10.371Z,15.80
2022-11-02T22:26:38.724Z,15.86
2022-11-02T22:29:07.236Z,15.50
2022-11-02T22:31:40.085Z,15.81
2022-11-02T22:34:10.787Z,15.92
2022-11-02T22:36:43.360Z,15.69
2022-11-02T22:39:13.267Z,15.77
2022-11-02T22:41:47.674Z,15.52
2022-11-02T22:44:19.168Z,15.53
2022-11-02T22:46:51.480Z,15.86
2022-11-02T22:49:19.743Z,15.78
2022-11-02T22:51:49.119Z,15.69
2022-11-02T22:54:18.712Z,15.63
2022-11-02T22:56:47.933Z,15.40
2022-11-02T22:59:16.610Z,15.31
2022-11-02T23:01:46.278Z,15.35
2022-11-02T23:04:14.921Z,15.43
2022-11-02T23:06:42.909Z,15.30
2022-11-02T23:09:12.896Z,15.20
2022-11-02T23:11:41.084Z,15.19
2022-11-02T23:14:11.798Z,15.23
2022-11-02T23:16:42.917Z,15.29
2022-11-02T23:19:31.506Z,15.40
2022-11-02T23:22:26.152Z,15.45
2022-11-02T23:25:15.183Z,15.41
2022-11-02T23:28:17.566Z,15.37
2022-11-02T23:31:03.878Z,15.23
2022-11-02T23:33:38.119Z,15.17
2022-11-02T23:36:13.141Z,15.12
2022-11-02T23:39:06.208Z,15.01
2022-11-02T23:41:35.496Z,15.11
2022-11-02T23:44:12.820Z,15.14
2022-11-02T23:46:45.677Z,15.05
2022-11-02T23:49:17.369Z,14.98
2022-11-02T23:52:04.494Z,15.01
2022-11-02T23:54:51.183Z,14.83
2022-11-02T23:57:19.480Z,14.99
2022-11-02T23:59:47.780Z,15.40
